Time;durP1;ratioP1;P1;durP2;ratioP2;P2;SDS_P1;SDS_P2;PMS_P1;PMS_P2;Temp;Humidity;BMP_temperature;BMP_pressure;BME280_temperature;BME280_humidity;BME280_pressure;Samples;Min_cycle;Max_cycle;Signal;HPM_P1;HPM_P2
2021/11/30 00:00:15;;;;;;;14.52;11.07;;;4.50;77.80;;;;;;5087446;28;20017;-66
2021/11/30 00:02:40;;;;;;;15.23;11.93;;;4.40;78.10;;;;;;5073398;28;20029;-65
2021/11/30 00:05:07;;;;;;;15.63;11.52;;;4.40;78.30;;;;;;5073463;28;20032;-65
2021/11/30 00:07:34;;;;;;;15.20;10.98;;;4.50;78.20;;;;;;5073346;28;20387;-66
2021/11/30 00:12:36;;;;;;;13.23;10.20;;;4.50;77.80;;;;;;5093440;28;20107;-66
2021/11/30 00:15:03;;;;;;;14.60;10.90;;;4.50;76.70;;;;;;5078652;28;20495;-65
2021/11/30 21:45:09;;;;;;;15.60;9.70;;;0.60;81.90;;;;;;5091653;28;20056;-68
2021/11/30 21:47:35;;;;;;;15.15;9.70;;;0.60;82.10;;;;;;5091946;28;20086;-68
2021/11/30 21:50:03;;;;;;;16.90;10.65;;;0.50;82.00;;;;;;5091938;28;20024;-68
2021/11/30 21:52:31;;;;;;;18.52;10.82;;;0.50;82.20;;;;;;5091853;28;20020;-69
2021/11/30 21:54:57;;;;;;;20.23;11.50;;;0.50;82.20;;;;;;5091842;28;20027;-68
2021/11/30 21:57:23;;;;;;;19.83;12.68;;;0.50;82.20;;;;;;5091750;28;20035;-67
2021/11/30 21:59:48;;;;;;;19.65;12.43;;;0.50;82.40;;;;;;5091664;28;20406;-69
2021/11/30 22:02:14;;;;;;;19.55;11.35;;;0.50;82.40;;;;;;5091668;28;20036;-66
2021/11/30 22:04:41;;;;;;;18.73;11.95;;;0.50;82.50;;;;;;5091511;28;20055;-68
2021/11/30 22:07:07;;;;;;;19.02;11.65;;;0.50;82.60;;;;;;5091547;28;20028;-68
2021/11/30 22:09:32;;;;;;;21.77;12.95;;;0.40;82.60;;;;;;5091696;28;20024;-69
2021/11/30 22:11:59;;;;;;;23.33;12.55;;;0.40;82.60;;;;;;5091450;28;20095;-67
2021/11/30 22:14:25;;;;;;;24.35;13.45;;;0.30;82.70;;;;;;5091707;28;20051;-67
2021/11/30 22:16:51;;;;;;;23.42;13.98;;;0.30;82.80;;;;;;5091322;28;20016;-67
2021/11/30 22:19:17;;;;;;;21.75;12.93;;;0.20;83.10;;;;;;5091260;28;20024;-68
2021/11/30 22:21:43;;;;;;;21.40;12.57;;;0.20;83.40;;;;;;5091397;28;20082;-68
2021/11/30 22:24:09;;;;;;;20.05;12.82;;;0.20;83.50;;;;;;5091440;28;20024;-68
2021/11/30 22:26:35;;;;;;;20.15;12.38;;;0.20;83.50;;;;;;5093018;28;20031;-67
2021/11/30 22:29:01;;;;;;;19.65;12.02;;;0.10;83.60;;;;;;5095669;28;20035;-67
2021/11/30 22:31:27;;;;;;;21.20;12.82;;;0.10;83.90;;;;;;5095838;28;20492;-68
2021/11/30 22:33:53;;;;;;;21.00;13.80;;;0.10;83.90;;;;;;5095748;28;20024;-67
2021/11/30 22:36:20;;;;;;;20.15;12.63;;;0.10;83.90;;;;;;5095693;28;20020;-67
2021/11/30 22:38:46;;;;;;;20.63;12.50;;;0.10;83.90;;;;;;5094264;28;20023;-67
2021/11/30 22:41:12;;;;;;;20.17;12.95;;;0.00;83.90;;;;;;5095338;28;20020;-68
2021/11/30 22:43:38;;;;;;;21.77;14.20;;;0.00;84.10;;;;;;5095137;28;20027;-67
2021/11/30 22:46:04;;;;;;;21.30;13.85;;;0.00;84.30;;;;;;5095146;28;20494;-67
2021/11/30 22:48:30;;;;;;;18.52;12.20;;;0.00;84.50;;;;;;5095257;28;20417;-67
2021/11/30 22:50:58;;;;;;;19.20;12.00;;;-0.10;84.40;;;;;;5095223;28;20031;-67
2021/11/30 22:53:25;;;;;;;16.52;10.63;;;-0.10;84.50;;;;;;5093766;28;20020;-67
2021/11/30 22:55:52;;;;;;;17.92;10.80;;;-0.10;84.60;;;;;;5095115;28;20030;-68
2021/11/30 22:58:18;;;;;;;16.50;10.25;;;-0.20;84.60;;;;;;5093617;28;20475;-67
2021/11/30 23:00:52;;;;;;;17.42;10.60;;;-0.30;84.70;;;;;;5094856;28;20058;-68
2021/11/30 23:03:18;;;;;;;17.73;11.07;;;-0.30;84.90;;;;;;5095260;28;20028;-67
2021/11/30 23:05:45;;;;;;;16.25;10.40;;;-0.40;85.00;;;;;;5095240;28;20427;-67
2021/11/30 23:08:11;;;;;;;17.15;10.65;;;-0.40;85.00;;;;;;5095229;28;20024;-68
2021/11/30 23:10:38;;;;;;;16.95;10.90;;;-0.40;85.10;;;;;;5094883;28;20085;-67
2021/11/30 23:13:06;;;;;;;18.00;11.30;;;-0.50;85.10;;;;;;5095404;28;20043;-67
2021/11/30 23:15:33;;;;;;;16.52;10.90;;;-0.50;85.50;;;;;;5095265;28;20449;-67
2021/11/30 23:18:00;;;;;;;18.80;12.07;;;-0.60;85.80;;;;;;5095293;28;20388;-68
2021/11/30 23:20:54;;;;;;;16.92;10.80;;;-0.50;86.40;;;;;;5095398;28;20131;-68
2021/11/30 23:23:35;;;;;;;15.90;10.85;;;-0.60;86.00;;;;;;5094387;28;20040;-68
2021/11/30 23:26:43;;;;;;;15.20;10.50;;;-0.60;86.20;;;;;;5094963;28;20028;-68
2021/11/30 23:28:56;;;;;;;18.63;11.25;;;-0.60;86.10;;;;;;5092240;28;20057;-69
2021/11/30 23:31:24;;;;;;;17.05;11.00;;;-0.60;86.40;;;;;;5094953;28;20027;-68
2021/11/30 23:33:53;;;;;;;15.45;10.27;;;-0.70;86.40;;;;;;5094467;28;20020;-66
2021/11/30 23:36:21;;;;;;;17.52;10.90;;;-0.70;86.60;;;;;;5094363;28;20363;-67
2021/11/30 23:38:50;;;;;;;16.58;10.80;;;-0.70;86.60;;;;;;5094427;28;20016;-68
2021/11/30 23:41:20;;;;;;;18.98;11.48;;;-0.70;86.70;;;;;;5094334;28;20043;-67
2021/11/30 23:43:47;;;;;;;17.42;11.45;;;-0.70;86.80;;;;;;5094307;28;20016;-67
2021/11/30 23:46:14;;;;;;;17.45;11.45;;;-0.70;87.10;;;;;;5094072;28;20036;-67
2021/11/30 23:48:40;;;;;;;17.17;11.45;;;-0.70;87.00;;;;;;5094165;28;20016;-67
2021/11/30 23:51:07;;;;;;;15.85;10.52;;;-0.80;87.00;;;;;;5092922;28;20550;-69
2021/11/30 23:53:33;;;;;;;16.42;11.23;;;-0.80;87.20;;;;;;5094208;28;20024;-68
2021/11/30 23:55:59;;;;;;;19.08;11.75;;;-0.90;87.30;;;;;;5094016;28;20020;-68
2021/11/30 23:58:25;;;;;;;18.63;11.68;;;-0.90;87.70;;;;;;5093786;28;20028;-68
